createdAt,value
2023-02-03T00:00:16.818Z,1.90
2023-02-03T00:03:04.150Z,1.70
2023-02-03T00:05:51.427Z,1.57
2023-02-03T00:08:38.709Z,2.00
2023-02-03T00:11:26.838Z,1.60
2023-02-03T00:14:13.757Z,1.40
2023-02-03T00:17:00.688Z,1.20
2023-02-03T00:19:47.761Z,1.30
2023-02-03T00:22:34.679Z,1.73
2023-02-03T00:25:21.619Z,1.50
2023-02-03T00:28:08.668Z,1.70
2023-02-03T00:30:55.641Z,1.33
2023-02-03T00:33:42.570Z,1.13
2023-02-03T00:36:29.495Z,0.97
2023-02-03T00:39:16.584Z,1.10
2023-02-03T00:42:04.715Z,1.30
2023-02-03T00:44:51.615Z,1.83
2023-02-03T00:47:38.602Z,1.80
2023-02-03T00:50:25.756Z,1.27
2023-02-03T00:53:12.898Z,1.50
2023-02-03T00:56:00.063Z,1.20
2023-02-03T00:58:47.139Z,3.20
2023-02-03T01:01:34.954Z,1.43
2023-02-03T01:04:21.957Z,1.30
2023-02-03T01:07:08.963Z,1.33
2023-02-03T01:09:55.898Z,2.00
2023-02-03T01:12:42.847Z,1.57
2023-02-03T01:15:29.884Z,1.20
2023-02-03T01:18:17.288Z,0.97
2023-02-03T01:21:06.408Z,2.03
2023-02-03T01:23:53.990Z,2.60
2023-02-03T01:26:41.609Z,1.30
2023-02-03T01:29:28.576Z,1.63
2023-02-03T01:32:15.607Z,1.77
2023-02-03T01:35:02.557Z,1.30
2023-02-03T01:37:49.623Z,1.20
2023-02-03T01:40:45.081Z,1.40
2023-02-03T01:43:38.438Z,1.67
2023-02-03T01:46:38.893Z,1.00
2023-02-03T01:49:33.189Z,1.30
2023-02-03T01:52:20.367Z,1.33
2023-02-03T01:55:12.532Z,1.67
2023-02-03T01:58:05.724Z,1.10
2023-02-03T02:00:54.180Z,1.67
2023-02-03T02:03:49.918Z,1.27
2023-02-03T02:06:37.241Z,1.70
2023-02-03T02:09:25.876Z,1.20
2023-02-03T02:12:13.120Z,1.27
2023-02-03T02:15:00.336Z,1.10
2023-02-03T02:18:19.198Z,1.37
2023-02-03T02:21:38.332Z,1.20
2023-02-03T02:24:46.565Z,1.50
2023-02-03T02:28:09.189Z,1.10
2023-02-03T02:31:08.380Z,1.30
2023-02-03T02:34:33.894Z,1.20
2023-02-03T02:37:38.553Z,1.20
2023-02-03T02:40:37.908Z,1.07
2023-02-03T02:43:42.834Z,1.23
2023-02-03T02:46:38.502Z,1.40
2023-02-03T02:49:44.066Z,2.47
2023-02-03T02:52:34.096Z,1.60
2023-02-03T02:55:27.773Z,1.83
2023-02-03T02:58:20.311Z,1.47
2023-02-03T03:01:09.710Z,1.50
2023-02-03T03:04:01.853Z,1.97
2023-02-03T03:06:53.569Z,1.20
2023-02-03T03:09:45.335Z,1.60
2023-02-03T03:12:36.206Z,1.43
2023-02-03T03:15:28.183Z,1.10
2023-02-03T03:18:33.075Z,1.70
2023-02-03T03:21:25.319Z,1.13
2023-02-03T03:24:17.844Z,1.30
2023-02-03T03:27:10.224Z,1.60
2023-02-03T03:30:01.941Z,1.37
2023-02-03T03:32:50.405Z,1.27
2023-02-03T03:36:01.589Z,1.33
2023-02-03T03:39:01.966Z,0.90
2023-02-03T03:42:02.115Z,1.53
2023-02-03T03:44:59.196Z,1.23
2023-02-03T03:47:57.726Z,1.20
2023-02-03T03:50:51.495Z,1.10
2023-02-03T03:53:41.524Z,1.40
2023-02-03T03:56:37.666Z,1.37
2023-02-03T03:59:28.324Z,1.30
2023-02-03T04:02:18.237Z,1.20
2023-02-03T04:05:06.799Z,1.07
2023-02-03T04:07:53.765Z,1.40
2023-02-03T04:10:42.728Z,1.00
2023-02-03T04:13:29.647Z,1.10
2023-02-03T04:16:16.555Z,1.47
2023-02-03T04:19:03.513Z,1.20
2023-02-03T04:21:50.935Z,1.40
2023-02-03T04:24:37.980Z,1.10
2023-02-03T04:27:26.253Z,1.30
2023-02-03T04:30:13.933Z,0.97
2023-02-03T04:33:00.928Z,1.10
2023-02-03T04:35:47.845Z,1.20
2023-02-03T04:38:34.835Z,1.10
2023-02-03T04:41:21.848Z,1.37
2023-02-03T04:44:08.869Z,1.03
2023-02-03T04:46:55.787Z,0.90
2023-02-03T04:49:42.802Z,0.93
2023-02-03T04:52:29.873Z,1.10
2023-02-03T04:55:16.899Z,1.20
2023-02-03T04:58:03.904Z,1.00
2023-02-03T05:00:50.933Z,0.90
2023-02-03T05:03:38.009Z,1.00
2023-02-03T05:06:26.850Z,1.10
2023-02-03T05:09:14.960Z,1.10
2023-02-03T05:12:01.887Z,0.90
2023-02-03T05:14:48.799Z,0.97
2023-02-03T05:17:38.830Z,1.40
2023-02-03T05:20:26.145Z,1.13
2023-02-03T05:23:13.262Z,1.30
2023-02-03T05:26:00.293Z,0.93
2023-02-03T05:28:47.236Z,1.17
2023-02-03T05:31:34.699Z,1.03
2023-02-03T05:34:21.808Z,1.07
2023-02-03T05:37:08.725Z,0.70
2023-02-03T05:40:15.611Z,1.90
2023-02-03T05:43:02.549Z,1.10
2023-02-03T05:45:49.489Z,0.83
2023-02-03T05:48:36.578Z,0.90
2023-02-03T05:51:24.945Z,1.07
2023-02-03T05:54:12.200Z,0.97
2023-02-03T05:56:59.126Z,1.00
2023-02-03T05:59:46.044Z,0.97
2023-02-03T06:02:32.970Z,0.80
2023-02-03T06:05:21.297Z,2.10
2023-02-03T06:08:08.947Z,0.83
2023-02-03T06:11:02.536Z,1.27
2023-02-03T06:13:50.498Z,0.80
2023-02-03T06:16:37.484Z,0.90
2023-02-03T06:19:24.475Z,0.87
2023-02-03T06:22:11.407Z,1.13
2023-02-03T06:24:58.384Z,1.27
2023-02-03T06:27:45.362Z,0.90
2023-02-03T06:30:32.416Z,0.70
2023-02-03T06:33:20.331Z,0.80
2023-02-03T06:36:07.504Z,0.70
2023-02-03T06:38:54.481Z,1.00
2023-02-03T06:41:41.390Z,0.80
2023-02-03T06:44:28.332Z,1.00
2023-02-03T06:47:15.379Z,0.70
2023-02-03T06:50:02.434Z,0.93
2023-02-03T06:52:50.561Z,0.80
2023-02-03T06:55:37.615Z,0.80
2023-02-03T06:58:24.539Z,0.80
2023-02-03T07:01:11.530Z,0.70
2023-02-03T07:03:58.905Z,0.90
2023-02-03T07:06:45.872Z,0.80
2023-02-03T07:09:32.825Z,0.63
2023-02-03T07:12:19.766Z,0.70
2023-02-03T07:15:07.142Z,0.70
2023-02-03T07:17:54.930Z,0.60
2023-02-03T07:20:42.007Z,3.57
2023-02-03T07:23:28.933Z,1.63
2023-02-03T07:26:17.239Z,1.13
2023-02-03T07:29:05.517Z,1.00
2023-02-03T07:31:52.608Z,0.80
2023-02-03T07:34:39.703Z,1.10
2023-02-03T07:37:26.963Z,0.73
2023-02-03T07:40:14.788Z,0.80
2023-02-03T07:43:01.798Z,0.90
2023-02-03T07:45:48.730Z,0.70
2023-02-03T07:48:35.703Z,0.70
2023-02-03T07:51:22.679Z,0.87
2023-02-03T07:54:09.695Z,0.80
2023-02-03T07:56:56.664Z,0.73
2023-02-03T07:59:43.579Z,0.63
2023-02-03T08:02:30.495Z,0.60
2023-02-03T08:05:18.607Z,0.77
2023-02-03T08:08:05.585Z,0.60
2023-02-03T08:10:55.541Z,0.77
2023-02-03T08:13:42.482Z,1.20
2023-02-03T08:16:29.485Z,0.63
2023-02-03T08:19:16.464Z,0.60
2023-02-03T08:22:03.447Z,0.70
2023-02-03T08:24:50.668Z,0.53
2023-02-03T08:27:38.689Z,0.50
2023-02-03T08:30:26.750Z,0.80
2023-02-03T08:33:13.875Z,0.50
2023-02-03T08:36:01.255Z,0.70
2023-02-03T08:38:48.210Z,0.63
2023-02-03T08:41:35.176Z,0.87
2023-02-03T08:44:22.159Z,0.73
2023-02-03T08:47:09.673Z,0.60
2023-02-03T08:49:56.657Z,1.07
2023-02-03T08:52:43.580Z,0.60
2023-02-03T08:55:30.570Z,0.60
2023-02-03T08:58:17.709Z,0.73
2023-02-03T09:01:13.154Z,1.30
2023-02-03T09:04:03.941Z,1.03
2023-02-03T09:06:54.425Z,0.70
2023-02-03T09:09:41.372Z,0.77
2023-02-03T09:12:28.297Z,0.60
2023-02-03T09:15:15.379Z,0.60
2023-02-03T09:18:02.306Z,0.80
2023-02-03T09:20:49.225Z,0.90
2023-02-03T09:23:36.229Z,0.80
2023-02-03T09:26:23.254Z,1.60
2023-02-03T09:29:10.807Z,1.30
2023-02-03T09:31:57.818Z,0.80
2023-02-03T09:34:44.759Z,0.93
2023-02-03T09:37:31.750Z,0.80
2023-02-03T09:40:32.753Z,0.87
2023-02-03T09:43:48.509Z,1.10
2023-02-03T09:46:43.309Z,0.80
2023-02-03T09:49:36.147Z,0.90
2023-02-03T09:52:25.898Z,0.90
2023-02-03T09:55:31.000Z,0.70
2023-02-03T09:58:22.889Z,1.83
2023-02-03T10:01:13.809Z,1.73
2023-02-03T10:04:13.301Z,0.80
2023-02-03T10:07:25.171Z,0.87
2023-02-03T10:10:37.580Z,0.60
2023-02-03T10:13:33.369Z,0.90
2023-02-03T10:16:46.096Z,0.80
2023-02-03T10:19:48.180Z,2.90
2023-02-03T10:22:59.716Z,1.20
2023-02-03T10:25:57.875Z,1.23
2023-02-03T10:28:56.222Z,0.90
2023-02-03T10:31:44.092Z,0.90
2023-02-03T10:34:31.222Z,1.00
2023-02-03T10:37:30.463Z,1.03
2023-02-03T10:40:17.807Z,1.67
2023-02-03T10:43:23.243Z,0.90
2023-02-03T10:46:10.222Z,1.60
2023-02-03T10:48:58.704Z,0.80
2023-02-03T10:51:52.113Z,0.97
2023-02-03T10:54:39.080Z,0.80
2023-02-03T10:57:29.110Z,0.90
2023-02-03T11:00:31.174Z,1.30
2023-02-03T11:03:25.552Z,0.60
2023-02-03T11:06:16.460Z,0.70
2023-02-03T11:09:28.159Z,0.80
2023-02-03T11:12:18.146Z,1.00
2023-02-03T11:15:06.019Z,1.77
2023-02-03T11:17:53.071Z,0.67
2023-02-03T11:20:40.066Z,0.67
2023-02-03T11:23:27.120Z,0.80
2023-02-03T11:26:17.835Z,0.60
2023-02-03T11:29:08.069Z,1.13
2023-02-03T11:31:57.464Z,0.67
2023-02-03T11:34:58.715Z,0.50
2023-02-03T11:37:48.460Z,0.70
2023-02-03T11:40:38.369Z,1.00
2023-02-03T11:43:25.368Z,1.03
2023-02-03T11:46:13.269Z,0.80
2023-02-03T11:49:23.649Z,0.87
2023-02-03T11:52:13.466Z,1.13
2023-02-03T11:55:18.978Z,0.50
2023-02-03T11:58:23.328Z,0.60
2023-02-03T12:01:28.988Z,1.20
2023-02-03T12:04:46.766Z,0.67
2023-02-03T12:07:43.326Z,0.60
2023-02-03T12:10:54.444Z,0.67
2023-02-03T12:14:07.062Z,0.77
2023-02-03T12:17:25.528Z,0.73
2023-02-03T12:20:41.802Z,0.60
2023-02-03T12:23:57.852Z,0.63
2023-02-03T12:27:09.176Z,0.60
2023-02-03T12:30:24.785Z,1.03
2023-02-03T12:33:27.381Z,0.70
2023-02-03T12:36:29.329Z,0.80
2023-02-03T12:39:23.369Z,1.30
2023-02-03T12:42:22.523Z,0.73
2023-02-03T12:45:12.279Z,0.90
2023-02-03T12:48:09.104Z,0.83
2023-02-03T12:51:10.569Z,0.63
2023-02-03T12:54:05.159Z,0.50
2023-02-03T12:56:55.255Z,0.70
2023-02-03T12:59:45.118Z,1.20
2023-02-03T13:02:44.108Z,1.17
2023-02-03T13:06:00.670Z,0.80
2023-02-03T13:08:58.184Z,2.40
2023-02-03T13:11:54.054Z,1.03
2023-02-03T13:14:53.642Z,0.70
2023-02-03T13:18:02.941Z,0.70
2023-02-03T13:20:50.141Z,0.83
2023-02-03T13:23:37.080Z,0.90
2023-02-03T13:26:48.417Z,0.70
2023-02-03T13:30:02.318Z,0.80
2023-02-03T13:33:18.687Z,0.70
2023-02-03T13:36:27.881Z,0.93
2023-02-03T13:39:36.079Z,0.77
2023-02-03T13:42:33.358Z,0.70
2023-02-03T13:45:38.593Z,0.60
2023-02-03T13:48:32.807Z,0.70
2023-02-03T13:51:26.090Z,0.93
2023-02-03T13:54:21.456Z,1.13
2023-02-03T13:57:22.435Z,1.57
2023-02-03T14:00:44.559Z,0.90
2023-02-03T14:03:31.479Z,0.70
2023-02-03T14:06:52.480Z,0.87
2023-02-03T14:09:39.979Z,0.70
2023-02-03T14:12:29.728Z,0.80
2023-02-03T14:15:26.182Z,0.60
2023-02-03T14:18:22.336Z,0.70
2023-02-03T14:21:13.316Z,0.90
2023-02-03T14:24:06.606Z,0.70
2023-02-03T14:26:57.078Z,1.30
2023-02-03T14:29:43.998Z,0.50
2023-02-03T14:32:53.991Z,0.70
2023-02-03T14:35:42.337Z,0.70
2023-02-03T14:38:32.817Z,0.80
2023-02-03T14:41:37.483Z,0.70
2023-02-03T14:44:36.347Z,1.50
2023-02-03T14:47:35.099Z,0.70
2023-02-03T14:50:37.437Z,0.60
2023-02-03T14:53:49.229Z,0.70
2023-02-03T14:57:16.833Z,0.73
2023-02-03T15:00:19.006Z,1.30
2023-02-03T15:03:11.860Z,0.70
2023-02-03T15:06:02.514Z,1.63
2023-02-03T15:08:49.654Z,1.20
2023-02-03T15:11:44.870Z,1.00
2023-02-03T15:14:31.876Z,1.03
2023-02-03T15:17:30.577Z,1.17
2023-02-03T15:20:30.616Z,0.73
2023-02-03T15:23:21.655Z,0.80
2023-02-03T15:26:15.653Z,0.80
2023-02-03T15:29:04.481Z,1.23
2023-02-03T15:31:58.042Z,0.80
2023-02-03T15:34:50.625Z,1.80
2023-02-03T15:37:51.328Z,1.83
2023-02-03T15:40:51.159Z,1.80
2023-02-03T15:43:43.058Z,1.57
2023-02-03T15:46:39.248Z,1.77
2023-02-03T15:49:34.318Z,1.57
2023-02-03T15:52:24.760Z,2.00
2023-02-03T15:55:23.652Z,0.90
2023-02-03T15:58:19.067Z,1.10
2023-02-03T16:01:11.765Z,0.80
2023-02-03T16:03:59.409Z,1.20
2023-02-03T16:06:48.759Z,2.30
2023-02-03T16:09:42.012Z,3.90
2023-02-03T16:12:31.365Z,2.40
2023-02-03T16:15:23.715Z,2.00
2023-02-03T16:18:17.763Z,1.60
2023-02-03T16:21:05.982Z,1.17
2023-02-03T16:23:52.906Z,1.30
2023-02-03T16:26:39.829Z,1.30
2023-02-03T16:29:48.465Z,0.90
2023-02-03T16:32:54.245Z,0.80
2023-02-03T16:35:59.899Z,0.70
2023-02-03T16:39:09.290Z,0.70
2023-02-03T16:42:17.726Z,0.90
2023-02-03T16:45:35.294Z,0.70
2023-02-03T16:48:41.227Z,0.70
2023-02-03T16:51:40.068Z,1.60
2023-02-03T16:54:28.200Z,0.50
2023-02-03T16:57:15.161Z,0.50
2023-02-03T17:00:02.867Z,0.60
2023-02-03T17:02:51.423Z,0.70
2023-02-03T17:05:40.209Z,0.93
2023-02-03T17:08:27.116Z,0.60
2023-02-03T17:11:20.793Z,0.83
2023-02-03T17:14:07.828Z,0.60
2023-02-03T17:16:55.110Z,0.70
2023-02-03T17:19:42.173Z,0.70
2023-02-03T17:22:30.380Z,0.67
2023-02-03T17:25:17.740Z,0.70
2023-02-03T17:28:06.641Z,0.70
2023-02-03T17:31:01.316Z,0.90
2023-02-03T17:33:52.218Z,0.90
2023-02-03T17:36:39.126Z,0.90
2023-02-03T17:54:54.141Z,4.57
2023-02-03T17:57:41.031Z,9.53
2023-02-03T18:00:28.212Z,6.93
2023-02-03T18:03:15.401Z,5.47
2023-02-03T18:06:04.285Z,3.30
2023-02-03T18:08:51.561Z,3.10
2023-02-03T18:11:38.498Z,2.20
2023-02-03T18:14:25.974Z,2.20
2023-02-03T18:17:12.893Z,1.73
2023-02-03T18:20:01.257Z,3.20
2023-02-03T18:22:48.247Z,3.23
2023-02-03T18:25:35.899Z,1.70
2023-02-03T18:28:23.511Z,2.50
2023-02-03T18:31:15.294Z,3.23
2023-02-03T18:34:03.280Z,2.50
2023-02-03T18:36:50.222Z,1.60
2023-02-03T18:39:37.211Z,1.40
2023-02-03T18:42:24.151Z,1.40
2023-02-03T18:45:11.717Z,1.50
2023-02-03T18:47:58.768Z,1.17
2023-02-03T18:50:45.761Z,1.10
2023-02-03T18:53:32.843Z,1.50
2023-02-03T18:56:22.037Z,0.80
2023-02-03T18:59:11.158Z,0.93
2023-02-03T19:01:58.331Z,1.00
2023-02-03T19:04:45.261Z,1.00
2023-02-03T19:07:32.282Z,1.20
2023-02-03T19:10:19.315Z,0.90
2023-02-03T19:13:06.254Z,1.00
2023-02-03T19:15:53.272Z,1.00
2023-02-03T19:18:40.660Z,0.87
2023-02-03T19:21:27.755Z,1.00
2023-02-03T19:24:15.744Z,3.30
2023-02-03T19:27:02.728Z,1.57
2023-02-03T19:29:49.668Z,1.00
2023-02-03T19:32:36.589Z,3.73
2023-02-03T19:35:23.670Z,1.40
2023-02-03T19:38:10.657Z,1.00
2023-02-03T19:40:57.765Z,2.50
2023-02-03T19:43:46.572Z,3.13
2023-02-03T19:46:41.630Z,2.00
2023-02-03T19:49:28.675Z,1.10
2023-02-03T19:52:15.641Z,0.80
2023-02-03T19:55:02.609Z,1.10
2023-02-03T19:57:49.889Z,0.77
2023-02-03T20:00:36.860Z,0.80
2023-02-03T20:03:24.377Z,1.03
2023-02-03T20:06:12.333Z,0.90
2023-02-03T20:09:00.123Z,1.03
2023-02-03T20:11:47.293Z,1.90
2023-02-03T20:14:34.339Z,4.20
2023-02-03T20:17:21.277Z,3.13
2023-02-03T20:20:08.705Z,4.30
2023-02-03T20:22:55.752Z,1.80
2023-02-03T20:25:43.030Z,1.40
2023-02-03T20:28:31.139Z,0.60
2023-02-03T20:31:18.261Z,0.50
2023-02-03T20:34:06.061Z,0.40
2023-02-03T20:36:55.720Z,0.70
2023-02-03T20:39:42.661Z,1.13
2023-02-03T20:42:29.585Z,0.60
2023-02-03T20:45:19.243Z,0.70
2023-02-03T20:48:08.853Z,0.73
2023-02-03T20:50:55.890Z,0.70
2023-02-03T20:53:44.295Z,0.50
2023-02-03T20:56:31.261Z,0.90
2023-02-03T20:59:19.337Z,0.60
2023-02-03T21:02:51.520Z,0.53
2023-02-03T21:05:43.328Z,0.90
2023-02-03T21:08:30.627Z,0.60
2023-02-03T21:11:26.539Z,0.80
2023-02-03T21:14:23.407Z,0.40
2023-02-03T21:17:17.683Z,0.53
2023-02-03T21:20:30.004Z,0.50
2023-02-03T21:23:17.939Z,1.03
2023-02-03T21:26:24.916Z,0.77
2023-02-03T21:29:24.028Z,0.63
2023-02-03T21:32:14.240Z,0.67
2023-02-03T21:35:01.186Z,0.60
2023-02-03T21:37:48.284Z,0.50
2023-02-03T21:40:35.227Z,0.53
2023-02-03T21:43:22.942Z,2.23
2023-02-03T21:46:16.867Z,0.80
2023-02-03T21:49:04.386Z,0.90
2023-02-03T21:51:51.384Z,1.00
2023-02-03T21:54:41.772Z,1.57
2023-02-03T21:57:28.697Z,0.90
2023-02-03T22:00:47.855Z,1.30
2023-02-03T22:03:37.989Z,1.60
2023-02-03T22:06:27.565Z,1.50
2023-02-03T22:09:19.763Z,0.93
2023-02-03T22:12:06.763Z,2.60
2023-02-03T22:14:53.803Z,1.90
2023-02-03T22:17:40.763Z,1.40
2023-02-03T22:20:27.932Z,1.93
2023-02-03T22:23:14.992Z,1.00
2023-02-03T22:26:02.037Z,1.20
2023-02-03T22:28:49.090Z,2.90
2023-02-03T22:31:36.156Z,2.27
2023-02-03T22:34:23.563Z,1.57
2023-02-03T22:37:10.500Z,2.63
2023-02-03T22:39:58.444Z,1.43
2023-02-03T22:42:45.531Z,2.27
2023-02-03T22:45:32.553Z,2.60
2023-02-03T22:48:19.863Z,1.60
2023-02-03T22:51:06.847Z,4.53
2023-02-03T22:53:53.927Z,1.20
2023-02-03T22:56:40.874Z,2.47
2023-02-03T22:59:27.803Z,1.77
2023-02-03T23:02:14.896Z,2.03
2023-02-03T23:05:01.934Z,1.67
2023-02-03T23:07:49.970Z,2.10
2023-02-03T23:10:37.011Z,1.53
2023-02-03T23:13:24.054Z,3.37
2023-02-03T23:16:11.008Z,2.20
2023-02-03T23:18:58.000Z,5.07
2023-02-03T23:21:44.940Z,3.13
2023-02-03T23:24:31.915Z,3.80
2023-02-03T23:27:18.842Z,2.50
2023-02-03T23:30:06.584Z,3.27
2023-02-03T23:32:53.538Z,2.13
2023-02-03T23:35:46.262Z,2.03
2023-02-03T23:38:33.603Z,3.07
2023-02-03T23:41:20.508Z,2.63
2023-02-03T23:44:07.461Z,5.37
2023-02-03T23:46:54.444Z,3.73
2023-02-03T23:49:41.360Z,1.97
2023-02-03T23:52:35.308Z,4.27
2023-02-03T23:55:23.392Z,3.70
2023-02-03T23:58:10.328Z,3.23
